ARG1719 SAAR-SABE
Flight info
| Callsign | ARG1719 |
|---|---|
| Flight time | 0h 34m |
| Altitude | 23000 |
| Route | VASAL2G VASAL W20 MULTA W24 SNT SNT9R |
| Aircraft | B738/M-SDE2E3FGHIRWXY/LB1 |
Departure
| Time | 2026-04-24 03:50 |
|---|---|
| Airport | Rosario Islas Malvinas International Airport (SAAR) |
Arrival
| Time | 2026-04-24 04:25 |
|---|---|
| Airport | Aeroparque Jorge Newbery (SABE) |
| Time | Latitude | Longitude | Altitude | Speed | Heading |
|---|---|---|---|---|---|
| 2026-04-24 03:25 | -32.91603 | -60.78125 | 94 ft | 0 kts | 111° |
| 2026-04-24 03:39 | -32.91595 | -60.78152 | 96 ft | 4 kts | 111° |
| 2026-04-24 03:39 | -32.91585 | -60.78182 | 95 ft | 4 kts | 106° |
| 2026-04-24 03:39 | -32.91581 | -60.78212 | 94 ft | 4 kts | 78° |
| 2026-04-24 03:40 | -32.91590 | -60.78229 | 94 ft | 3 kts | 21° |
| 2026-04-24 03:40 | -32.91612 | -60.78240 | 93 ft | 1 kts | 21° |
| 2026-04-24 03:40 | -32.91613 | -60.78240 | 93 ft | 0 kts | 21° |
| 2026-04-24 03:42 | -32.91610 | -60.78239 | 93 ft | 2 kts | 21° |
| 2026-04-24 03:42 | -32.91578 | -60.78224 | 94 ft | 8 kts | 21° |
| 2026-04-24 03:43 | -32.91522 | -60.78199 | 98 ft | 9 kts | 21° |
| 2026-04-24 03:43 | -32.91466 | -60.78173 | 94 ft | 8 kts | 21° |
| 2026-04-24 03:43 | -32.91411 | -60.78172 | 94 ft | 8 kts | 331° |
| 2026-04-24 03:43 | -32.91366 | -60.78212 | 96 ft | 8 kts | 321° |
| 2026-04-24 03:44 | -32.91323 | -60.78253 | 94 ft | 8 kts | 321° |
| 2026-04-24 03:44 | -32.91282 | -60.78292 | 96 ft | 8 kts | 321° |
| 2026-04-24 03:44 | -32.91231 | -60.78342 | 97 ft | 12 kts | 321° |
| 2026-04-24 03:44 | -32.91163 | -60.78407 | 95 ft | 13 kts | 321° |
| 2026-04-24 03:45 | -32.91095 | -60.78466 | 95 ft | 12 kts | 327° |
| 2026-04-24 03:45 | -32.91021 | -60.78513 | 96 ft | 12 kts | 340° |
| 2026-04-24 03:45 | -32.90944 | -60.78547 | 97 ft | 12 kts | 340° |
| 2026-04-24 03:45 | -32.90859 | -60.78572 | 99 ft | 15 kts | 353° |
| 2026-04-24 03:46 | -32.90738 | -60.78554 | 98 ft | 20 kts | 11° |
| 2026-04-24 03:46 | -32.90580 | -60.78519 | 97 ft | 25 kts | 11° |
| 2026-04-24 03:46 | -32.90401 | -60.78478 | 93 ft | 28 kts | 11° |
| 2026-04-24 03:46 | -32.90217 | -60.78436 | 96 ft | 26 kts | 11° |
| 2026-04-24 03:47 | -32.90044 | -60.78398 | 95 ft | 24 kts | 11° |
| 2026-04-24 03:47 | -32.89884 | -60.78361 | 97 ft | 23 kts | 11° |
| 2026-04-24 03:47 | -32.89725 | -60.78326 | 98 ft | 25 kts | 11° |
| 2026-04-24 03:47 | -32.89544 | -60.78285 | 98 ft | 28 kts | 11° |
| 2026-04-24 03:48 | -32.89361 | -60.78243 | 97 ft | 26 kts | 11° |
| 2026-04-24 03:48 | -32.89223 | -60.78210 | 95 ft | 15 kts | 11° |
| 2026-04-24 03:48 | -32.89118 | -60.78190 | 97 ft | 15 kts | 358° |
| 2026-04-24 03:48 | -32.89050 | -60.78178 | 98 ft | 2 kts | 79° |
| 2026-04-24 03:49 | -32.89064 | -60.78177 | 99 ft | 2 kts | 189° |
| 2026-04-24 03:49 | -32.89094 | -60.78183 | 97 ft | 13 kts | 189° |
| 2026-04-24 03:49 | -32.89410 | -60.78255 | 99 ft | 81 kts | 190° |
| 2026-04-24 03:49 | -32.90175 | -60.78427 | 96 ft | 140 kts | 191° |
| 2026-04-24 03:50 | -32.91244 | -60.78659 | 394 ft | 159 kts | 189° |
| 2026-04-24 03:50 | -32.92344 | -60.78907 | 974 ft | 169 kts | 189° |
| 2026-04-24 03:50 | -32.93536 | -60.79176 | 1455 ft | 179 kts | 188° |
| 2026-04-24 03:50 | -32.94821 | -60.79463 | 1851 ft | 196 kts | 188° |
| 2026-04-24 03:51 | -32.96218 | -60.79789 | 2226 ft | 213 kts | 189° |
| 2026-04-24 03:51 | -32.97698 | -60.80138 | 2708 ft | 222 kts | 189° |
| 2026-04-24 03:51 | -32.99260 | -60.80494 | 3061 ft | 234 kts | 189° |
| 2026-04-24 03:51 | -33.00887 | -60.80811 | 3476 ft | 243 kts | 179° |
| 2026-04-24 03:52 | -33.02549 | -60.80385 | 3913 ft | 249 kts | 147° |
| 2026-04-24 03:52 | -33.03927 | -60.79184 | 4702 ft | 244 kts | 136° |
| 2026-04-24 03:52 | -33.05200 | -60.77780 | 5186 ft | 255 kts | 135° |
| 2026-04-24 03:52 | -33.06506 | -60.76340 | 5886 ft | 254 kts | 137° |
| 2026-04-24 03:53 | -33.07804 | -60.74954 | 6735 ft | 249 kts | 137° |
| 2026-04-24 03:53 | -33.09123 | -60.73569 | 7282 ft | 257 kts | 137° |
| 2026-04-24 03:53 | -33.10499 | -60.72135 | 7765 ft | 268 kts | 138° |
| 2026-04-24 03:53 | -33.11935 | -60.70664 | 8354 ft | 275 kts | 138° |
| 2026-04-24 03:54 | -33.13391 | -60.69176 | 9113 ft | 275 kts | 139° |
| 2026-04-24 03:54 | -33.14859 | -60.67678 | 9783 ft | 282 kts | 139° |
| 2026-04-24 03:54 | -33.16354 | -60.66150 | 10231 ft | 295 kts | 139° |
| 2026-04-24 03:54 | -33.18003 | -60.64448 | 10458 ft | 318 kts | 139° |
| 2026-04-24 03:55 | -33.19734 | -60.62656 | 10658 ft | 340 kts | 139° |
| 2026-04-24 03:55 | -33.21555 | -60.60771 | 11063 ft | 352 kts | 139° |
| 2026-04-24 03:55 | -33.23423 | -60.58841 | 11684 ft | 357 kts | 139° |
| 2026-04-24 03:55 | -33.25286 | -60.56916 | 12373 ft | 360 kts | 139° |
| 2026-04-24 03:56 | -33.27196 | -60.54945 | 13042 ft | 364 kts | 139° |
| 2026-04-24 03:56 | -33.29150 | -60.52926 | 13717 ft | 369 kts | 139° |
| 2026-04-24 03:56 | -33.31080 | -60.50932 | 14353 ft | 374 kts | 140° |
| 2026-04-24 03:56 | -33.33062 | -60.48883 | 14991 ft | 378 kts | 140° |
| 2026-04-24 03:57 | -33.35108 | -60.47006 | 15806 ft | 373 kts | 148° |
| 2026-04-24 03:57 | -33.37326 | -60.45392 | 16611 ft | 376 kts | 152° |
| 2026-04-24 03:57 | -33.39653 | -60.43829 | 16967 ft | 389 kts | 153° |
| 2026-04-24 03:57 | -33.42016 | -60.42268 | 17506 ft | 396 kts | 153° |
| 2026-04-24 03:58 | -33.44437 | -60.40651 | 18164 ft | 400 kts | 153° |
| 2026-04-24 03:58 | -33.46869 | -60.39000 | 18780 ft | 404 kts | 153° |
| 2026-04-24 03:58 | -33.49319 | -60.37313 | 19303 ft | 409 kts | 153° |
| 2026-04-24 03:58 | -33.51794 | -60.35594 | 19821 ft | 414 kts | 153° |
| 2026-04-24 03:59 | -33.54295 | -60.33848 | 20353 ft | 419 kts | 153° |
| 2026-04-24 03:59 | -33.56827 | -60.32076 | 20878 ft | 423 kts | 153° |
| 2026-04-24 03:59 | -33.59366 | -60.30296 | 21513 ft | 423 kts | 153° |
| 2026-04-24 03:59 | -33.61901 | -60.28516 | 22213 ft | 422 kts | 154° |
| 2026-04-24 04:00 | -33.64420 | -60.26703 | 22895 ft | 424 kts | 149° |
| 2026-04-24 04:00 | -33.66710 | -60.24402 | 23159 ft | 432 kts | 137° |
| 2026-04-24 04:00 | -33.68634 | -60.21641 | 23158 ft | 433 kts | 127° |
| 2026-04-24 04:00 | -33.70219 | -60.18548 | 23170 ft | 435 kts | 122° |
| 2026-04-24 04:01 | -33.71729 | -60.15407 | 23155 ft | 435 kts | 121° |
| 2026-04-24 04:01 | -33.73217 | -60.12278 | 23132 ft | 425 kts | 121° |
| 2026-04-24 04:01 | -33.74672 | -60.09221 | 22831 ft | 419 kts | 121° |
| 2026-04-24 04:01 | -33.76107 | -60.06222 | 22506 ft | 415 kts | 122° |
| 2026-04-24 04:02 | -33.77547 | -60.03230 | 22119 ft | 412 kts | 122° |
| 2026-04-24 04:02 | -33.78980 | -60.00261 | 21744 ft | 408 kts | 122° |
| 2026-04-24 04:02 | -33.80401 | -59.97324 | 21377 ft | 405 kts | 122° |
| 2026-04-24 04:02 | -33.81803 | -59.94429 | 21000 ft | 402 kts | 122° |
| 2026-04-24 04:03 | -33.83059 | -59.91835 | 20655 ft | 400 kts | 122° |
| 2026-04-24 04:03 | -33.84454 | -59.88951 | 20279 ft | 397 kts | 121° |
| 2026-04-24 04:03 | -33.85836 | -59.86092 | 19884 ft | 394 kts | 121° |
| 2026-04-24 04:03 | -33.87211 | -59.83245 | 19525 ft | 392 kts | 121° |
| 2026-04-24 04:04 | -33.88573 | -59.80422 | 19157 ft | 390 kts | 121° |
| 2026-04-24 04:04 | -33.89929 | -59.77610 | 18784 ft | 387 kts | 121° |
| 2026-04-24 04:04 | -33.91276 | -59.74814 | 18399 ft | 385 kts | 121° |
| 2026-04-24 04:04 | -33.92619 | -59.72024 | 17972 ft | 383 kts | 121° |
| 2026-04-24 04:05 | -33.93887 | -59.69388 | 17585 ft | 380 kts | 121° |
| 2026-04-24 04:05 | -33.95255 | -59.66542 | 17191 ft | 377 kts | 121° |
| 2026-04-24 04:05 | -33.96546 | -59.63853 | 16812 ft | 373 kts | 121° |
| 2026-04-24 04:05 | -33.97840 | -59.61156 | 16435 ft | 370 kts | 120° |
| 2026-04-24 04:06 | -33.99124 | -59.58479 | 16063 ft | 368 kts | 121° |
| 2026-04-24 04:06 | -33.99986 | -59.56680 | 15812 ft | 366 kts | 120° |
| 2026-04-24 04:06 | -34.00395 | -59.55826 | 15689 ft | 365 kts | 120° |
| 2026-04-24 04:06 | -34.01660 | -59.53185 | 15322 ft | 362 kts | 120° |
| 2026-04-24 04:07 | -34.02908 | -59.50576 | 14948 ft | 359 kts | 120° |
| 2026-04-24 04:07 | -34.04150 | -59.47978 | 14587 ft | 357 kts | 120° |
| 2026-04-24 04:07 | -34.05384 | -59.45395 | 14220 ft | 354 kts | 120° |
| 2026-04-24 04:07 | -34.06610 | -59.42827 | 13846 ft | 352 kts | 120° |
| 2026-04-24 04:08 | -34.07828 | -59.40274 | 13439 ft | 350 kts | 120° |
| 2026-04-24 04:08 | -34.09035 | -59.37741 | 13057 ft | 347 kts | 120° |
| 2026-04-24 04:08 | -34.10236 | -59.35222 | 12686 ft | 344 kts | 120° |
| 2026-04-24 04:08 | -34.11421 | -59.32731 | 12321 ft | 341 kts | 120° |
| 2026-04-24 04:09 | -34.12591 | -59.30272 | 11955 ft | 339 kts | 120° |
| 2026-04-24 04:09 | -34.13760 | -59.27811 | 11584 ft | 336 kts | 120° |
| 2026-04-24 04:09 | -34.14917 | -59.25377 | 11229 ft | 333 kts | 120° |
| 2026-04-24 04:09 | -34.16064 | -59.22960 | 10883 ft | 331 kts | 120° |
| 2026-04-24 04:10 | -34.17199 | -59.20568 | 10627 ft | 325 kts | 119° |
| 2026-04-24 04:10 | -34.18499 | -59.18408 | 10549 ft | 313 kts | 136° |
| 2026-04-24 04:10 | -34.20144 | -59.16658 | 10556 ft | 317 kts | 140° |
| 2026-04-24 04:11 | -34.23492 | -59.13282 | 10549 ft | 311 kts | 140° |
| 2026-04-24 04:11 | -34.25147 | -59.11602 | 10561 ft | 311 kts | 140° |
| 2026-04-24 04:11 | -34.26803 | -59.09904 | 10556 ft | 313 kts | 139° |
| 2026-04-24 04:11 | -34.28468 | -59.08186 | 10571 ft | 314 kts | 139° |
| 2026-04-24 04:12 | -34.30128 | -59.06465 | 10568 ft | 315 kts | 139° |
| 2026-04-24 04:12 | -34.31795 | -59.04731 | 10563 ft | 316 kts | 139° |
| 2026-04-24 04:12 | -34.33464 | -59.02990 | 10566 ft | 316 kts | 139° |
| 2026-04-24 04:12 | -34.35126 | -59.01254 | 10563 ft | 315 kts | 139° |
| 2026-04-24 04:13 | -34.36781 | -58.99524 | 10555 ft | 314 kts | 139° |
| 2026-04-24 04:13 | -34.38433 | -58.97796 | 10561 ft | 313 kts | 139° |
| 2026-04-24 04:13 | -34.40079 | -58.96072 | 10559 ft | 312 kts | 139° |
| 2026-04-24 04:13 | -34.41717 | -58.94356 | 10553 ft | 311 kts | 139° |
| 2026-04-24 04:14 | -34.43353 | -58.92641 | 10555 ft | 311 kts | 139° |
| 2026-04-24 04:14 | -34.44985 | -58.90929 | 10561 ft | 310 kts | 139° |
| 2026-04-24 04:14 | -34.46618 | -58.89215 | 10563 ft | 310 kts | 139° |
| 2026-04-24 04:14 | -34.48248 | -58.87503 | 10560 ft | 311 kts | 139° |
| 2026-04-24 04:15 | -34.49881 | -58.85788 | 10558 ft | 311 kts | 139° |
| 2026-04-24 04:15 | -34.51513 | -58.84072 | 10453 ft | 308 kts | 139° |
| 2026-04-24 04:15 | -34.53080 | -58.82424 | 10392 ft | 297 kts | 139° |
| 2026-04-24 04:15 | -34.54620 | -58.80805 | 10268 ft | 289 kts | 139° |
| 2026-04-24 04:16 | -34.56054 | -58.79149 | 10125 ft | 281 kts | 126° |
| 2026-04-24 04:16 | -34.56887 | -58.77021 | 9854 ft | 278 kts | 108° |
| 2026-04-24 04:16 | -34.57490 | -58.74803 | 9565 ft | 277 kts | 108° |
| 2026-04-24 04:16 | -34.58080 | -58.72580 | 9275 ft | 276 kts | 107° |
| 2026-04-24 04:17 | -34.58665 | -58.70373 | 8994 ft | 275 kts | 108° |
| 2026-04-24 04:17 | -34.59252 | -58.68169 | 8714 ft | 274 kts | 108° |
| 2026-04-24 04:17 | -34.59837 | -58.65980 | 8439 ft | 272 kts | 108° |
| 2026-04-24 04:17 | -34.60423 | -58.63796 | 8167 ft | 271 kts | 108° |
| 2026-04-24 04:18 | -34.61006 | -58.61628 | 7902 ft | 270 kts | 108° |
| 2026-04-24 04:18 | -34.61589 | -58.59459 | 7623 ft | 270 kts | 108° |
| 2026-04-24 04:18 | -34.62170 | -58.57299 | 7336 ft | 269 kts | 108° |
| 2026-04-24 04:18 | -34.62751 | -58.55125 | 6955 ft | 273 kts | 108° |
| 2026-04-24 04:19 | -34.63339 | -58.52903 | 6468 ft | 281 kts | 108° |
| 2026-04-24 04:19 | -34.63934 | -58.50656 | 6054 ft | 284 kts | 108° |
| 2026-04-24 04:19 | -34.64554 | -58.48376 | 5631 ft | 279 kts | 109° |
| 2026-04-24 04:19 | -34.65196 | -58.46144 | 5039 ft | 280 kts | 109° |
| 2026-04-24 04:20 | -34.65843 | -58.43930 | 4563 ft | 276 kts | 109° |
| 2026-04-24 04:20 | -34.66512 | -58.41737 | 3910 ft | 279 kts | 109° |
| 2026-04-24 04:20 | -34.67194 | -58.39602 | 3622 ft | 265 kts | 109° |
| 2026-04-24 04:20 | -34.67714 | -58.37564 | 3389 ft | 242 kts | 95° |
| 2026-04-24 04:21 | -34.67510 | -58.35641 | 2795 ft | 226 kts | 63° |
| 2026-04-24 04:21 | -34.66511 | -58.34286 | 2308 ft | 210 kts | 28° |
| 2026-04-24 04:21 | -34.65217 | -58.33815 | 2121 ft | 185 kts | 359° |
| 2026-04-24 04:21 | -34.63973 | -58.33903 | 1827 ft | 172 kts | 355° |
| 2026-04-24 04:22 | -34.62870 | -58.34063 | 1752 ft | 145 kts | 349° |
| 2026-04-24 04:22 | -34.61926 | -58.34363 | 1597 ft | 137 kts | 347° |
| 2026-04-24 04:22 | -34.61028 | -58.34681 | 1610 ft | 133 kts | 344° |
| 2026-04-24 04:22 | -34.60158 | -58.35100 | 1354 ft | 138 kts | 338° |
| 2026-04-24 04:23 | -34.59348 | -58.35715 | 1114 ft | 138 kts | 326° |
| 2026-04-24 04:23 | -34.58696 | -58.36585 | 848 ft | 141 kts | 307° |
| 2026-04-24 04:23 | -34.58171 | -58.37569 | 694 ft | 138 kts | 308° |
| 2026-04-24 04:23 | -34.57634 | -58.38526 | 501 ft | 137 kts | 307° |
| 2026-04-24 04:24 | -34.57096 | -58.39485 | 289 ft | 137 kts | 306° |
| 2026-04-24 04:24 | -34.56568 | -58.40435 | 114 ft | 136 kts | 307° |
| 2026-04-24 04:24 | -34.56063 | -58.41335 | 28 ft | 119 kts | 306° |
| 2026-04-24 04:24 | -34.55691 | -58.41998 | 28 ft | 64 kts | 304° |
| 2026-04-24 04:25 | -34.55514 | -58.42312 | 27 ft | 32 kts | 303° |
| 2026-04-24 04:25 | -34.55433 | -58.42458 | 26 ft | 7 kts | 304° |
| 2026-04-24 04:25 | -34.55405 | -58.42499 | 26 ft | 7 kts | 336° |
| 2026-04-24 04:25 | -34.55366 | -58.42478 | 24 ft | 7 kts | 59° |
| 2026-04-24 04:26 | -34.55365 | -58.42424 | 24 ft | 6 kts | 98° |
| 2026-04-24 04:26 | -34.55374 | -58.42371 | 29 ft | 6 kts | 113° |
| 2026-04-24 04:26 | -34.55393 | -58.42338 | 26 ft | 6 kts | 126° |
| 2026-04-24 04:26 | -34.55418 | -58.42297 | 27 ft | 6 kts | 126° |
| 2026-04-24 04:27 | -34.55444 | -58.42256 | 25 ft | 6 kts | 127° |
| 2026-04-24 04:27 | -34.55474 | -58.42207 | 25 ft | 9 kts | 127° |
| 2026-04-24 04:27 | -34.55518 | -58.42137 | 24 ft | 12 kts | 127° |
| 2026-04-24 04:27 | -34.55571 | -58.42050 | 26 ft | 13 kts | 127° |
| 2026-04-24 04:28 | -34.55622 | -58.41960 | 26 ft | 13 kts | 124° |
| 2026-04-24 04:28 | -34.55671 | -58.41873 | 27 ft | 12 kts | 124° |
| 2026-04-24 04:28 | -34.55718 | -58.41788 | 24 ft | 12 kts | 124° |
| 2026-04-24 04:28 | -34.55758 | -58.41701 | 26 ft | 12 kts | 116° |
| 2026-04-24 04:29 | -34.55782 | -58.41643 | 27 ft | 11 kts | 117° |
| 2026-04-24 04:29 | -34.55817 | -58.41558 | 25 ft | 11 kts | 117° |
| 2026-04-24 04:29 | -34.55863 | -58.41448 | 24 ft | 11 kts | 117° |
| 2026-04-24 04:29 | -34.55886 | -58.41394 | 27 ft | 11 kts | 117° |
| 2026-04-24 04:30 | -34.55931 | -58.41293 | 26 ft | 10 kts | 122° |
| 2026-04-24 04:30 | -34.55972 | -58.41225 | 25 ft | 10 kts | 127° |
| 2026-04-24 04:30 | -34.55999 | -58.41180 | 26 ft | 10 kts | 127° |
| 2026-04-24 04:30 | -34.56040 | -58.41116 | 28 ft | 9 kts | 127° |
| 2026-04-24 04:31 | -34.56025 | -58.41059 | 27 ft | 7 kts | 11° |
| 2026-04-24 04:31 | -34.55986 | -58.41047 | 26 ft | 5 kts | 38° |
| 2026-04-24 04:31 | -34.55973 | -58.41025 | 26 ft | 1 kts | 57° |
| 2026-04-24 04:31 | -34.55971 | -58.41021 | 26 ft | 1 kts | 57° |
| 2026-04-24 04:32 | -34.55968 | -58.41017 | 25 ft | 1 kts | 58° |
| 2026-04-24 04:32 | -34.55967 | -58.41014 | 25 ft | 0 kts | 58° |